sensor_id;sensor_type;location;lat;lon;timestamp;temperature;humidity
21184;DHT22;18176;49.502;11.754;2022-11-23T00:00:41;3.90;99.90
21184;DHT22;18176;49.502;11.754;2022-11-23T00:04:41;3.80;99.90
21184;DHT22;18176;49.502;11.754;2022-11-23T00:08:44;3.80;99.90
21184;DHT22;18176;49.502;11.754;2022-11-23T00:12:44;3.80;99.90
21184;DHT22;18176;49.502;11.754;2022-11-23T00:16:45;3.80;99.90
21184;DHT22;18176;49.502;11.754;2022-11-23T00:20:45;3.70;99.90
21184;DHT22;18176;49.502;11.754;2022-11-23T00:24:47;3.70;99.90
21184;DHT22;18176;49.502;11.754;2022-11-23T00:28:48;3.70;99.90
21184;DHT22;18176;49.502;11.754;2022-11-23T00:32:49;3.70;99.90
21184;DHT22;18176;49.502;11.754;2022-11-23T00:36:50;3.60;99.90
21184;DHT22;18176;49.502;11.754;2022-11-23T00:40:57;3.60;99.90
21184;DHT22;18176;49.502;11.754;2022-11-23T00:44:58;3.60;99.90
21184;DHT22;18176;49.502;11.754;2022-11-23T00:48:58;3.60;99.90
21184;DHT22;18176;49.502;11.754;2022-11-23T00:52:59;3.60;99.90
21184;DHT22;18176;49.502;11.754;2022-11-23T00:57:02;3.60;99.90
21184;DHT22;18176;49.502;11.754;2022-11-23T01:01:05;3.60;99.90
21184;DHT22;18176;49.502;11.754;2022-11-23T01:05:07;3.70;99.90
21184;DHT22;18176;49.502;11.754;2022-11-23T01:09:12;3.70;99.90
21184;DHT22;18176;49.502;11.754;2022-11-23T01:13:16;3.60;99.90
21184;DHT22;18176;49.502;11.754;2022-11-23T01:17:16;3.60;99.90
21184;DHT22;18176;49.502;11.754;2022-11-23T01:21:17;3.60;99.90
21184;DHT22;18176;49.502;11.754;2022-11-23T01:25:17;3.60;99.90
21184;DHT22;18176;49.502;11.754;2022-11-23T01:29:20;3.60;99.90
21184;DHT22;18176;49.502;11.754;2022-11-23T01:33:21;3.60;99.90
21184;DHT22;18176;49.502;11.754;2022-11-23T01:37:22;3.60;99.90
21184;DHT22;18176;49.502;11.754;2022-11-23T01:41:24;3.60;99.90
21184;DHT22;18176;49.502;11.754;2022-11-23T01:45:52;3.70;99.90
21184;DHT22;18176;49.502;11.754;2022-11-23T01:49:55;3.60;99.90
21184;DHT22;18176;49.502;11.754;2022-11-23T01:53:59;3.60;99.90
21184;DHT22;18176;49.502;11.754;2022-11-23T01:58:01;3.70;99.90
21184;DHT22;18176;49.502;11.754;2022-11-23T02:02:05;3.60;99.90
21184;DHT22;18176;49.502;11.754;2022-11-23T02:06:10;3.60;99.90
21184;DHT22;18176;49.502;11.754;2022-11-23T02:10:14;3.70;99.90
21184;DHT22;18176;49.502;11.754;2022-11-23T02:14:15;3.60;99.90
21184;DHT22;18176;49.502;11.754;2022-11-23T02:18:27;3.60;99.90
21184;DHT22;18176;49.502;11.754;2022-11-23T02:22:35;3.70;99.90
21184;DHT22;18176;49.502;11.754;2022-11-23T02:26:45;3.70;99.90
21184;DHT22;18176;49.502;11.754;2022-11-23T02:30:47;3.70;99.90
21184;DHT22;18176;49.502;11.754;2022-11-23T02:34:52;3.70;99.90
21184;DHT22;18176;49.502;11.754;2022-11-23T02:38:53;3.70;99.90
21184;DHT22;18176;49.502;11.754;2022-11-23T02:42:57;3.70;99.90
21184;DHT22;18176;49.502;11.754;2022-11-23T02:46:57;3.70;99.90
21184;DHT22;18176;49.502;11.754;2022-11-23T02:50:58;3.70;99.90
21184;DHT22;18176;49.502;11.754;2022-11-23T02:55:00;3.70;99.90
21184;DHT22;18176;49.502;11.754;2022-11-23T02:59:03;3.60;99.90
21184;DHT22;18176;49.502;11.754;2022-11-23T03:03:04;3.60;99.90
21184;DHT22;18176;49.502;11.754;2022-11-23T03:07:04;3.60;99.90
21184;DHT22;18176;49.502;11.754;2022-11-23T03:11:05;3.60;99.90
21184;DHT22;18176;49.502;11.754;2022-11-23T03:15:08;3.60;99.90
21184;DHT22;18176;49.502;11.754;2022-11-23T03:19:10;3.60;99.90
21184;DHT22;18176;49.502;11.754;2022-11-23T03:23:11;3.60;99.90
21184;DHT22;18176;49.502;11.754;2022-11-23T03:27:12;3.60;99.90
21184;DHT22;18176;49.502;11.754;2022-11-23T03:31:16;3.60;99.90
21184;DHT22;18176;49.502;11.754;2022-11-23T03:35:17;3.70;99.90
21184;DHT22;18176;49.502;11.754;2022-11-23T03:39:43;3.70;99.90
21184;DHT22;18176;49.502;11.754;2022-11-23T03:44:02;3.60;99.90
21184;DHT22;18176;49.502;11.754;2022-11-23T03:48:05;3.60;99.90
21184;DHT22;18176;49.502;11.754;2022-11-23T03:52:06;3.60;99.90
21184;DHT22;18176;49.502;11.754;2022-11-23T03:56:06;3.60;99.90
21184;DHT22;18176;49.502;11.754;2022-11-23T04:00:12;3.60;99.90
21184;DHT22;18176;49.502;11.754;2022-11-23T04:04:17;3.60;99.90
21184;DHT22;18176;49.502;11.754;2022-11-23T04:08:56;3.60;99.90
21184;DHT22;18176;49.502;11.754;2022-11-23T04:13:36;3.60;99.90
21184;DHT22;18176;49.502;11.754;2022-11-23T04:17:37;3.60;99.90
21184;DHT22;18176;49.502;11.754;2022-11-23T04:21:40;3.60;99.90
21184;DHT22;18176;49.502;11.754;2022-11-23T04:25:42;3.60;99.90
21184;DHT22;18176;49.502;11.754;2022-11-23T04:29:45;3.50;99.90
21184;DHT22;18176;49.502;11.754;2022-11-23T04:33:46;3.50;99.90
21184;DHT22;18176;49.502;11.754;2022-11-23T04:37:51;3.50;99.90
21184;DHT22;18176;49.502;11.754;2022-11-23T04:41:55;3.50;99.90
21184;DHT22;18176;49.502;11.754;2022-11-23T04:45:56;3.50;99.90
21184;DHT22;18176;49.502;11.754;2022-11-23T04:49:59;3.50;99.90
21184;DHT22;18176;49.502;11.754;2022-11-23T04:54:02;3.50;99.90
21184;DHT22;18176;49.502;11.754;2022-11-23T04:58:11;3.50;99.90
21184;DHT22;18176;49.502;11.754;2022-11-23T05:02:11;3.50;99.90
21184;DHT22;18176;49.502;11.754;2022-11-23T05:06:22;3.40;99.90
21184;DHT22;18176;49.502;11.754;2022-11-23T05:10:26;3.40;99.90
21184;DHT22;18176;49.502;11.754;2022-11-23T05:14:28;3.50;99.90
21184;DHT22;18176;49.502;11.754;2022-11-23T05:18:28;3.40;99.90
21184;DHT22;18176;49.502;11.754;2022-11-23T05:22:28;3.40;99.90
21184;DHT22;18176;49.502;11.754;2022-11-23T05:26:31;3.30;99.90
21184;DHT22;18176;49.502;11.754;2022-11-23T05:30:32;3.30;99.90
21184;DHT22;18176;49.502;11.754;2022-11-23T05:34:32;3.30;99.90
21184;DHT22;18176;49.502;11.754;2022-11-23T05:38:33;3.30;99.90
21184;DHT22;18176;49.502;11.754;2022-11-23T05:42:42;3.30;99.90
21184;DHT22;18176;49.502;11.754;2022-11-23T05:46:48;3.30;99.90
21184;DHT22;18176;49.502;11.754;2022-11-23T05:50:50;3.30;99.90
21184;DHT22;18176;49.502;11.754;2022-11-23T05:55:02;3.30;99.90
21184;DHT22;18176;49.502;11.754;2022-11-23T05:59:05;3.30;99.90
21184;DHT22;18176;49.502;11.754;2022-11-23T06:03:08;3.30;99.90
21184;DHT22;18176;49.502;11.754;2022-11-23T06:07:09;3.30;99.90
21184;DHT22;18176;49.502;11.754;2022-11-23T06:11:28;3.30;99.90
21184;DHT22;18176;49.502;11.754;2022-11-23T06:15:38;3.30;99.90
21184;DHT22;18176;49.502;11.754;2022-11-23T06:19:38;3.30;99.90
21184;DHT22;18176;49.502;11.754;2022-11-23T06:23:40;3.30;99.90
21184;DHT22;18176;49.502;11.754;2022-11-23T06:27:40;3.40;99.90
21184;DHT22;18176;49.502;11.754;2022-11-23T06:31:51;3.40;99.90
21184;DHT22;18176;49.502;11.754;2022-11-23T06:35:52;3.40;99.90
21184;DHT22;18176;49.502;11.754;2022-11-23T06:39:57;3.50;99.90
21184;DHT22;18176;49.502;11.754;2022-11-23T06:43:57;3.50;99.90
21184;DHT22;18176;49.502;11.754;2022-11-23T06:48:10;3.50;99.90
21184;DHT22;18176;49.502;11.754;2022-11-23T06:52:14;3.50;99.90
21184;DHT22;18176;49.502;11.754;2022-11-23T06:56:15;3.50;99.90
21184;DHT22;18176;49.502;11.754;2022-11-23T07:05:28;3.60;99.90
21184;DHT22;18176;49.502;11.754;2022-11-23T07:09:29;3.60;99.90
21184;DHT22;18176;49.502;11.754;2022-11-23T07:13:55;3.60;99.90
21184;DHT22;18176;49.502;11.754;2022-11-23T07:17:58;3.70;99.90
21184;DHT22;18176;49.502;11.754;2022-11-23T07:22:01;3.60;99.90
21184;DHT22;18176;49.502;11.754;2022-11-23T07:26:02;3.70;99.90
21184;DHT22;18176;49.502;11.754;2022-11-23T07:30:03;3.80;99.90
21184;DHT22;18176;49.502;11.754;2022-11-23T07:34:04;3.80;99.90
21184;DHT22;18176;49.502;11.754;2022-11-23T07:38:08;3.80;99.90
21184;DHT22;18176;49.502;11.754;2022-11-23T07:42:08;3.90;99.90
21184;DHT22;18176;49.502;11.754;2022-11-23T07:46:28;3.90;99.90
21184;DHT22;18176;49.502;11.754;2022-11-23T07:50:28;3.90;99.90
21184;DHT22;18176;49.502;11.754;2022-11-23T07:54:32;4.00;99.90
21184;DHT22;18176;49.502;11.754;2022-11-23T07:58:32;4.00;99.90
21184;DHT22;18176;49.502;11.754;2022-11-23T08:02:32;4.00;99.90
21184;DHT22;18176;49.502;11.754;2022-11-23T08:06:32;4.00;99.90
21184;DHT22;18176;49.502;11.754;2022-11-23T08:10:35;4.00;99.90
21184;DHT22;18176;49.502;11.754;2022-11-23T08:14:45;4.00;99.90
21184;DHT22;18176;49.502;11.754;2022-11-23T08:18:46;4.00;99.90
21184;DHT22;18176;49.502;11.754;2022-11-23T08:22:46;4.10;99.90
21184;DHT22;18176;49.502;11.754;2022-11-23T08:26:49;4.10;99.90
21184;DHT22;18176;49.502;11.754;2022-11-23T08:30:49;4.10;99.90
21184;DHT22;18176;49.502;11.754;2022-11-23T08:34:49;4.10;99.90
21184;DHT22;18176;49.502;11.754;2022-11-23T08:38:50;4.20;99.90
21184;DHT22;18176;49.502;11.754;2022-11-23T08:42:53;4.20;99.90
21184;DHT22;18176;49.502;11.754;2022-11-23T08:46:53;4.30;99.90
21184;DHT22;18176;49.502;11.754;2022-11-23T08:50:56;4.30;99.90
21184;DHT22;18176;49.502;11.754;2022-11-23T08:54:57;4.40;99.90
21184;DHT22;18176;49.502;11.754;2022-11-23T08:59:00;4.40;99.90
21184;DHT22;18176;49.502;11.754;2022-11-23T09:03:00;4.50;99.90
21184;DHT22;18176;49.502;11.754;2022-11-23T09:07:02;4.70;99.90
21184;DHT22;18176;49.502;11.754;2022-11-23T09:11:04;4.60;99.90
21184;DHT22;18176;49.502;11.754;2022-11-23T09:15:09;4.70;99.90
21184;DHT22;18176;49.502;11.754;2022-11-23T09:19:12;4.70;99.90
21184;DHT22;18176;49.502;11.754;2022-11-23T09:23:13;4.60;99.90
21184;DHT22;18176;49.502;11.754;2022-11-23T09:27:13;4.80;99.90
21184;DHT22;18176;49.502;11.754;2022-11-23T09:31:16;4.80;99.90
21184;DHT22;18176;49.502;11.754;2022-11-23T09:35:17;4.80;99.90
21184;DHT22;18176;49.502;11.754;2022-11-23T09:39:17;4.80;99.90
21184;DHT22;18176;49.502;11.754;2022-11-23T09:43:33;4.90;99.90
21184;DHT22;18176;49.502;11.754;2022-11-23T09:47:54;5.00;99.90
21184;DHT22;18176;49.502;11.754;2022-11-23T09:52:09;5.00;99.90
21184;DHT22;18176;49.502;11.754;2022-11-23T09:56:17;5.10;99.90
21184;DHT22;18176;49.502;11.754;2022-11-23T10:00:21;5.10;99.90
21184;DHT22;18176;49.502;11.754;2022-11-23T10:04:33;5.20;99.90
21184;DHT22;18176;49.502;11.754;2022-11-23T10:08:39;5.20;99.90
21184;DHT22;18176;49.502;11.754;2022-11-23T10:12:49;5.20;99.90
21184;DHT22;18176;49.502;11.754;2022-11-23T10:17:02;5.30;99.90
21184;DHT22;18176;49.502;11.754;2022-11-23T10:21:20;5.40;99.90
21184;DHT22;18176;49.502;11.754;2022-11-23T10:25:32;5.30;99.90
21184;DHT22;18176;49.502;11.754;2022-11-23T10:29:37;5.50;99.90
21184;DHT22;18176;49.502;11.754;2022-11-23T10:33:48;5.50;99.90
21184;DHT22;18176;49.502;11.754;2022-11-23T10:38:08;5.60;99.90
21184;DHT22;18176;49.502;11.754;2022-11-23T10:42:19;5.50;99.90
21184;DHT22;18176;49.502;11.754;2022-11-23T10:46:28;5.50;99.90
21184;DHT22;18176;49.502;11.754;2022-11-23T10:50:31;5.50;99.90
21184;DHT22;18176;49.502;11.754;2022-11-23T10:54:39;5.60;99.90
21184;DHT22;18176;49.502;11.754;2022-11-23T10:58:50;5.70;99.90
21184;DHT22;18176;49.502;11.754;2022-11-23T11:02:52;5.70;99.90
21184;DHT22;18176;49.502;11.754;2022-11-23T11:07:09;5.70;99.90
21184;DHT22;18176;49.502;11.754;2022-11-23T11:11:25;5.80;99.90
21184;DHT22;18176;49.502;11.754;2022-11-23T11:15:26;5.90;99.90
21184;DHT22;18176;49.502;11.754;2022-11-23T11:19:28;6.00;99.90
21184;DHT22;18176;49.502;11.754;2022-11-23T11:23:31;6.10;99.90
21184;DHT22;18176;49.502;11.754;2022-11-23T11:27:36;5.90;99.90
21184;DHT22;18176;49.502;11.754;2022-11-23T11:31:44;6.00;99.90
21184;DHT22;18176;49.502;11.754;2022-11-23T11:35:52;6.00;99.90
21184;DHT22;18176;49.502;11.754;2022-11-23T11:40:00;6.30;99.90
21184;DHT22;18176;49.502;11.754;2022-11-23T11:44:13;6.50;99.90
21184;DHT22;18176;49.502;11.754;2022-11-23T11:48:22;6.50;99.90
21184;DHT22;18176;49.502;11.754;2022-11-23T11:52:31;6.50;99.90
21184;DHT22;18176;49.502;11.754;2022-11-23T11:56:37;6.50;99.90
21184;DHT22;18176;49.502;11.754;2022-11-23T12:00:45;6.40;99.90
21184;DHT22;18176;49.502;11.754;2022-11-23T12:05:02;6.60;99.90
21184;DHT22;18176;49.502;11.754;2022-11-23T12:09:13;6.60;99.90
21184;DHT22;18176;49.502;11.754;2022-11-23T12:13:19;6.40;99.90
21184;DHT22;18176;49.502;11.754;2022-11-23T12:17:46;6.30;99.90
21184;DHT22;18176;49.502;11.754;2022-11-23T12:22:28;6.20;99.90
21184;DHT22;18176;49.502;11.754;2022-11-23T12:26:45;6.20;99.90
21184;DHT22;18176;49.502;11.754;2022-11-23T12:30:59;6.20;99.90
21184;DHT22;18176;49.502;11.754;2022-11-23T12:35:30;6.30;99.90
21184;DHT22;18176;49.502;11.754;2022-11-23T12:39:59;6.60;99.90
21184;DHT22;18176;49.502;11.754;2022-11-23T12:44:46;6.60;99.90
21184;DHT22;18176;49.502;11.754;2022-11-23T12:49:04;6.50;99.90
21184;DHT22;18176;49.502;11.754;2022-11-23T12:53:31;6.70;99.90
21184;DHT22;18176;49.502;11.754;2022-11-23T12:57:45;6.90;99.90
21184;DHT22;18176;49.502;11.754;2022-11-23T13:01:54;7.00;99.90
21184;DHT22;18176;49.502;11.754;2022-11-23T13:06:35;7.00;99.90
21184;DHT22;18176;49.502;11.754;2022-11-23T13:11:34;6.80;99.90
21184;DHT22;18176;49.502;11.754;2022-11-23T13:16:05;6.70;99.90
21184;DHT22;18176;49.502;11.754;2022-11-23T13:20:28;6.40;99.90
21184;DHT22;18176;49.502;11.754;2022-11-23T13:24:59;6.40;99.90
21184;DHT22;18176;49.502;11.754;2022-11-23T13:33:56;6.10;99.90
21184;DHT22;18176;49.502;11.754;2022-11-23T13:38:25;6.10;99.90
21184;DHT22;18176;49.502;11.754;2022-11-23T13:42:31;6.00;99.90
21184;DHT22;18176;49.502;11.754;2022-11-23T13:46:35;6.00;99.90
21184;DHT22;18176;49.502;11.754;2022-11-23T13:50:38;6.00;99.90
21184;DHT22;18176;49.502;11.754;2022-11-23T13:55:14;5.80;99.90
21184;DHT22;18176;49.502;11.754;2022-11-23T13:59:28;5.80;99.90
21184;DHT22;18176;49.502;11.754;2022-11-23T14:03:53;5.80;99.90
21184;DHT22;18176;49.502;11.754;2022-11-23T14:07:55;5.70;99.90
21184;DHT22;18176;49.502;11.754;2022-11-23T14:12:02;5.70;99.90
21184;DHT22;18176;49.502;11.754;2022-11-23T14:16:10;5.70;99.90
21184;DHT22;18176;49.502;11.754;2022-11-23T14:20:31;5.60;99.90
21184;DHT22;18176;49.502;11.754;2022-11-23T14:24:51;5.40;99.90
21184;DHT22;18176;49.502;11.754;2022-11-23T14:29:25;5.40;99.90
21184;DHT22;18176;49.502;11.754;2022-11-23T14:33:36;5.30;99.90
21184;DHT22;18176;49.502;11.754;2022-11-23T14:37:55;5.10;99.90
21184;DHT22;18176;49.502;11.754;2022-11-23T14:42:10;5.10;99.90
21184;DHT22;18176;49.502;11.754;2022-11-23T14:46:15;5.10;99.90
21184;DHT22;18176;49.502;11.754;2022-11-23T14:50:22;5.00;99.90
21184;DHT22;18176;49.502;11.754;2022-11-23T14:54:26;5.10;99.90
21184;DHT22;18176;49.502;11.754;2022-11-23T14:58:30;5.10;99.90
21184;DHT22;18176;49.502;11.754;2022-11-23T15:02:34;5.00;99.90
21184;DHT22;18176;49.502;11.754;2022-11-23T15:06:40;4.90;99.90
21184;DHT22;18176;49.502;11.754;2022-11-23T15:10:51;4.90;99.90
21184;DHT22;18176;49.502;11.754;2022-11-23T15:14:59;4.90;99.90
21184;DHT22;18176;49.502;11.754;2022-11-23T15:18:59;4.80;99.90
21184;DHT22;18176;49.502;11.754;2022-11-23T15:23:19;4.70;99.90
21184;DHT22;18176;49.502;11.754;2022-11-23T15:27:25;4.80;99.90
21184;DHT22;18176;49.502;11.754;2022-11-23T15:31:28;4.80;99.90
21184;DHT22;18176;49.502;11.754;2022-11-23T15:35:33;4.80;99.90
21184;DHT22;18176;49.502;11.754;2022-11-23T15:39:35;4.70;99.90
21184;DHT22;18176;49.502;11.754;2022-11-23T15:43:50;4.70;99.90
21184;DHT22;18176;49.502;11.754;2022-11-23T15:47:52;4.60;99.90
21184;DHT22;18176;49.502;11.754;2022-11-23T15:51:58;4.50;99.90
21184;DHT22;18176;49.502;11.754;2022-11-23T15:56:03;4.50;99.90
21184;DHT22;18176;49.502;11.754;2022-11-23T16:00:17;4.50;99.90
21184;DHT22;18176;49.502;11.754;2022-11-23T16:04:26;4.40;99.90
21184;DHT22;18176;49.502;11.754;2022-11-23T16:08:28;4.40;99.90
21184;DHT22;18176;49.502;11.754;2022-11-23T16:12:46;4.40;99.90
21184;DHT22;18176;49.502;11.754;2022-11-23T16:17:03;4.40;99.90
21184;DHT22;18176;49.502;11.754;2022-11-23T16:21:15;4.40;99.90
21184;DHT22;18176;49.502;11.754;2022-11-23T16:25:23;4.40;99.90
21184;DHT22;18176;49.502;11.754;2022-11-23T16:29:31;4.40;99.90
21184;DHT22;18176;49.502;11.754;2022-11-23T16:33:36;4.40;99.90
21184;DHT22;18176;49.502;11.754;2022-11-23T16:37:37;4.50;99.90
21184;DHT22;18176;49.502;11.754;2022-11-23T16:41:37;4.50;99.90
21184;DHT22;18176;49.502;11.754;2022-11-23T16:45:38;4.50;99.90
21184;DHT22;18176;49.502;11.754;2022-11-23T16:49:45;4.50;99.90
21184;DHT22;18176;49.502;11.754;2022-11-23T16:53:45;4.60;99.90
21184;DHT22;18176;49.502;11.754;2022-11-23T16:58:07;4.60;99.90
21184;DHT22;18176;49.502;11.754;2022-11-23T17:02:13;4.70;99.90
21184;DHT22;18176;49.502;11.754;2022-11-23T17:06:18;4.70;99.90
21184;DHT22;18176;49.502;11.754;2022-11-23T17:10:21;4.70;99.90
21184;DHT22;18176;49.502;11.754;2022-11-23T17:14:21;4.70;99.90
21184;DHT22;18176;49.502;11.754;2022-11-23T17:18:25;4.70;99.90
21184;DHT22;18176;49.502;11.754;2022-11-23T17:22:28;4.70;99.90
21184;DHT22;18176;49.502;11.754;2022-11-23T17:26:31;4.80;99.90
21184;DHT22;18176;49.502;11.754;2022-11-23T17:30:33;4.80;99.90
21184;DHT22;18176;49.502;11.754;2022-11-23T17:34:34;4.80;99.90
21184;DHT22;18176;49.502;11.754;2022-11-23T17:38:37;4.80;99.90
21184;DHT22;18176;49.502;11.754;2022-11-23T17:42:40;4.80;99.90
21184;DHT22;18176;49.502;11.754;2022-11-23T17:46:40;4.80;99.90
21184;DHT22;18176;49.502;11.754;2022-11-23T17:50:41;4.80;99.90
21184;DHT22;18176;49.502;11.754;2022-11-23T17:54:45;4.80;99.90
21184;DHT22;18176;49.502;11.754;2022-11-23T17:58:46;4.80;99.90
21184;DHT22;18176;49.502;11.754;2022-11-23T18:02:47;4.80;99.90
21184;DHT22;18176;49.502;11.754;2022-11-23T18:06:48;4.70;99.90
21184;DHT22;18176;49.502;11.754;2022-11-23T18:10:51;4.80;99.90
21184;DHT22;18176;49.502;11.754;2022-11-23T18:14:55;4.80;99.90
21184;DHT22;18176;49.502;11.754;2022-11-23T18:18:55;4.90;99.90
21184;DHT22;18176;49.502;11.754;2022-11-23T18:22:55;4.80;99.90
21184;DHT22;18176;49.502;11.754;2022-11-23T18:26:58;4.80;99.90
21184;DHT22;18176;49.502;11.754;2022-11-23T18:30:58;4.80;99.90
21184;DHT22;18176;49.502;11.754;2022-11-23T18:34:58;4.80;99.90
21184;DHT22;18176;49.502;11.754;2022-11-23T18:38:58;4.80;99.90
21184;DHT22;18176;49.502;11.754;2022-11-23T18:43:01;4.70;99.90
21184;DHT22;18176;49.502;11.754;2022-11-23T18:47:01;4.70;99.90
21184;DHT22;18176;49.502;11.754;2022-11-23T18:51:01;4.70;99.90
21184;DHT22;18176;49.502;11.754;2022-11-23T18:55:07;4.70;99.90
21184;DHT22;18176;49.502;11.754;2022-11-23T18:59:10;4.70;99.90
21184;DHT22;18176;49.502;11.754;2022-11-23T19:03:33;4.70;99.90
21184;DHT22;18176;49.502;11.754;2022-11-23T19:07:33;4.70;99.90
21184;DHT22;18176;49.502;11.754;2022-11-23T19:11:34;4.60;99.90
21184;DHT22;18176;49.502;11.754;2022-11-23T19:15:37;4.60;99.90
21184;DHT22;18176;49.502;11.754;2022-11-23T19:19:37;4.50;99.90
21184;DHT22;18176;49.502;11.754;2022-11-23T19:23:38;4.50;99.90
21184;DHT22;18176;49.502;11.754;2022-11-23T19:27:38;4.50;99.90
21184;DHT22;18176;49.502;11.754;2022-11-23T19:31:41;4.50;99.90
21184;DHT22;18176;49.502;11.754;2022-11-23T19:35:41;4.50;99.90
21184;DHT22;18176;49.502;11.754;2022-11-23T19:39:42;4.50;99.90
21184;DHT22;18176;49.502;11.754;2022-11-23T19:43:43;4.60;99.90
21184;DHT22;18176;49.502;11.754;2022-11-23T19:47:46;4.60;99.90
21184;DHT22;18176;49.502;11.754;2022-11-23T19:51:46;4.50;99.90
21184;DHT22;18176;49.502;11.754;2022-11-23T19:55:48;4.60;99.90
21184;DHT22;18176;49.502;11.754;2022-11-23T19:59:49;4.60;99.90
21184;DHT22;18176;49.502;11.754;2022-11-23T20:03:53;4.60;99.90
21184;DHT22;18176;49.502;11.754;2022-11-23T20:07:57;4.60;99.90
21184;DHT22;18176;49.502;11.754;2022-11-23T20:11:57;4.70;99.90
21184;DHT22;18176;49.502;11.754;2022-11-23T20:16:00;4.70;99.90
21184;DHT22;18176;49.502;11.754;2022-11-23T20:20:06;4.70;99.90
21184;DHT22;18176;49.502;11.754;2022-11-23T20:24:11;4.70;99.90
21184;DHT22;18176;49.502;11.754;2022-11-23T20:28:12;4.80;99.90
21184;DHT22;18176;49.502;11.754;2022-11-23T20:32:13;4.80;99.90
21184;DHT22;18176;49.502;11.754;2022-11-23T20:36:17;4.70;99.90
21184;DHT22;18176;49.502;11.754;2022-11-23T20:40:20;4.70;99.90
21184;DHT22;18176;49.502;11.754;2022-11-23T20:44:21;4.70;99.90
21184;DHT22;18176;49.502;11.754;2022-11-23T20:48:29;4.60;99.90
21184;DHT22;18176;49.502;11.754;2022-11-23T20:52:34;4.60;99.90
21184;DHT22;18176;49.502;11.754;2022-11-23T20:56:34;4.60;99.90
21184;DHT22;18176;49.502;11.754;2022-11-23T21:00:36;4.60;99.90
21184;DHT22;18176;49.502;11.754;2022-11-23T21:04:36;4.60;99.90
21184;DHT22;18176;49.502;11.754;2022-11-23T21:08:39;4.60;99.90
21184;DHT22;18176;49.502;11.754;2022-11-23T21:12:40;4.60;99.90
21184;DHT22;18176;49.502;11.754;2022-11-23T21:16:54;4.60;99.90
21184;DHT22;18176;49.502;11.754;2022-11-23T21:20:56;4.60;99.90
21184;DHT22;18176;49.502;11.754;2022-11-23T21:24:59;4.60;99.90
21184;DHT22;18176;49.502;11.754;2022-11-23T21:28:59;4.50;99.90
21184;DHT22;18176;49.502;11.754;2022-11-23T21:33:00;4.50;99.90
21184;DHT22;18176;49.502;11.754;2022-11-23T21:37:00;4.60;99.90
21184;DHT22;18176;49.502;11.754;2022-11-23T21:41:04;4.60;99.90
21184;DHT22;18176;49.502;11.754;2022-11-23T21:45:07;4.60;99.90
21184;DHT22;18176;49.502;11.754;2022-11-23T21:49:09;4.60;99.90
21184;DHT22;18176;49.502;11.754;2022-11-23T21:53:09;4.60;99.90
21184;DHT22;18176;49.502;11.754;2022-11-23T21:57:12;4.60;99.90
21184;DHT22;18176;49.502;11.754;2022-11-23T22:01:15;4.70;99.90
21184;DHT22;18176;49.502;11.754;2022-11-23T22:05:16;4.60;99.90
21184;DHT22;18176;49.502;11.754;2022-11-23T22:09:17;4.60;99.90
21184;DHT22;18176;49.502;11.754;2022-11-23T22:13:20;4.60;99.90
21184;DHT22;18176;49.502;11.754;2022-11-23T22:17:20;4.60;99.90
21184;DHT22;18176;49.502;11.754;2022-11-23T22:21:21;4.60;99.90
21184;DHT22;18176;49.502;11.754;2022-11-23T22:25:22;4.50;99.90
21184;DHT22;18176;49.502;11.754;2022-11-23T22:29:25;4.50;99.90
21184;DHT22;18176;49.502;11.754;2022-11-23T22:33:26;4.50;99.90
21184;DHT22;18176;49.502;11.754;2022-11-23T22:37:26;4.50;99.90
21184;DHT22;18176;49.502;11.754;2022-11-23T22:41:27;4.40;99.90
21184;DHT22;18176;49.502;11.754;2022-11-23T22:45:33;4.50;99.90
21184;DHT22;18176;49.502;11.754;2022-11-23T22:49:33;4.40;99.90
21184;DHT22;18176;49.502;11.754;2022-11-23T22:53:34;4.50;99.90
21184;DHT22;18176;49.502;11.754;2022-11-23T22:57:40;4.50;99.90
21184;DHT22;18176;49.502;11.754;2022-11-23T23:01:43;4.50;99.90
21184;DHT22;18176;49.502;11.754;2022-11-23T23:05:52;4.40;99.90
21184;DHT22;18176;49.502;11.754;2022-11-23T23:09:53;4.30;99.90
21184;DHT22;18176;49.502;11.754;2022-11-23T23:13:54;4.30;99.90
21184;DHT22;18176;49.502;11.754;2022-11-23T23:17:57;4.20;99.90
21184;DHT22;18176;49.502;11.754;2022-11-23T23:21:57;4.20;99.90
21184;DHT22;18176;49.502;11.754;2022-11-23T23:25:57;4.10;99.90
21184;DHT22;18176;49.502;11.754;2022-11-23T23:29:57;4.10;99.90
21184;DHT22;18176;49.502;11.754;2022-11-23T23:34:00;4.10;99.90
21184;DHT22;18176;49.502;11.754;2022-11-23T23:38:01;4.10;99.90
21184;DHT22;18176;49.502;11.754;2022-11-23T23:42:01;4.10;99.90
21184;DHT22;18176;49.502;11.754;2022-11-23T23:46:05;4.10;99.90
21184;DHT22;18176;49.502;11.754;2022-11-23T23:50:10;4.10;99.90
21184;DHT22;18176;49.502;11.754;2022-11-23T23:54:10;4.10;99.90
21184;DHT22;18176;49.502;11.754;2022-11-23T23:58:11;4.10;99.90
